createdAt,value
2023-05-20T00:03:37.297Z,14.28
2023-05-20T00:08:41.069Z,14.25
2023-05-20T00:13:44.437Z,14.26
2023-05-20T00:18:49.258Z,14.24
2023-05-20T00:23:52.868Z,14.26
2023-05-20T00:28:56.114Z,14.20
2023-05-20T00:34:01.592Z,14.22
2023-05-20T00:39:05.028Z,14.21
2023-05-20T00:44:08.271Z,14.21
2023-05-20T00:49:14.226Z,14.21
2023-05-20T00:54:17.946Z,14.19
2023-05-20T00:59:22.836Z,14.25
2023-05-20T01:04:28.438Z,14.23
2023-05-20T01:09:32.576Z,14.24
2023-05-20T01:14:41.589Z,14.25
2023-05-20T01:19:48.072Z,14.26
2023-05-20T01:24:53.769Z,14.25
2023-05-20T01:29:57.591Z,14.26
2023-05-20T01:35:02.071Z,14.24
2023-05-20T01:40:09.340Z,14.28
2023-05-20T01:45:12.844Z,14.25
2023-05-20T01:50:16.196Z,14.22
2023-05-20T01:55:20.992Z,14.24
2023-05-20T02:00:28.996Z,14.27
2023-05-20T02:05:33.523Z,14.30
2023-05-20T02:10:39.172Z,14.31
2023-05-20T02:15:43.190Z,14.28
2023-05-20T02:20:46.711Z,14.28
2023-05-20T02:25:51.957Z,14.28
2023-05-20T02:30:55.449Z,14.26
2023-05-20T02:35:59.004Z,14.25
2023-05-20T02:41:04.699Z,14.25
2023-05-20T02:46:08.065Z,14.27
2023-05-20T02:51:11.659Z,14.26
2023-05-20T02:56:16.421Z,14.26
2023-05-20T03:01:19.867Z,14.20
2023-05-20T03:06:23.184Z,14.21
2023-05-20T03:11:27.675Z,14.19
2023-05-20T03:16:31.049Z,14.20
2023-05-20T03:21:34.451Z,14.15
2023-05-20T03:26:43.543Z,14.08
2023-05-20T03:31:47.621Z,14.08
2023-05-20T03:36:52.747Z,14.09
2023-05-20T03:41:57.212Z,14.16
2023-05-20T03:47:00.461Z,14.18
2023-05-20T03:52:04.096Z,14.19
2023-05-20T03:57:10.650Z,14.16
2023-05-20T04:02:13.927Z,14.12
2023-05-20T04:07:17.144Z,14.19
2023-05-20T04:12:21.665Z,14.13
2023-05-20T04:17:24.977Z,14.12
2023-05-20T04:22:28.716Z,14.15
2023-05-20T04:27:34.870Z,14.09
2023-05-20T04:32:38.876Z,14.09
2023-05-20T04:37:44.681Z,14.16
2023-05-20T04:42:49.265Z,14.20
2023-05-20T04:47:53.521Z,14.27
2023-05-20T04:52:56.853Z,14.31
2023-05-20T04:58:01.545Z,14.36
2023-05-20T05:03:04.984Z,14.45
2023-05-20T05:08:08.412Z,14.41
2023-05-20T05:13:13.022Z,14.44
2023-05-20T05:18:19.235Z,14.49
2023-05-20T05:23:22.589Z,14.54
2023-05-20T05:28:27.530Z,14.57
2023-05-20T05:33:37.959Z,14.58
2023-05-20T05:38:41.423Z,14.78
2023-05-20T05:43:45.910Z,14.95
2023-05-20T05:48:52.178Z,15.35
2023-05-20T05:53:55.953Z,15.44
2023-05-20T05:59:00.895Z,15.56
2023-05-20T06:04:04.466Z,15.64
2023-05-20T06:09:10.809Z,15.64
2023-05-20T06:14:18.187Z,15.55
2023-05-20T06:19:25.572Z,15.51
2023-05-20T06:24:31.249Z,15.52
2023-05-20T06:29:35.923Z,15.73
2023-05-20T06:34:39.130Z,15.61
2023-05-20T06:39:42.984Z,15.62
2023-05-20T06:44:47.760Z,15.50
2023-05-20T06:49:50.999Z,15.37
2023-05-20T06:54:54.724Z,15.48
2023-05-20T06:59:59.381Z,15.40
2023-05-20T07:05:02.991Z,15.40
2023-05-20T07:10:07.960Z,15.32
2023-05-20T07:15:13.130Z,15.31
2023-05-20T07:20:16.580Z,15.29
2023-05-20T07:25:19.856Z,15.23
2023-05-20T07:30:24.987Z,15.30
2023-05-20T07:35:28.300Z,15.38
2023-05-20T07:40:31.552Z,15.45
2023-05-20T07:45:36.702Z,15.55
2023-05-20T07:50:40.444Z,15.63
2023-05-20T07:55:43.594Z,15.77
2023-05-20T08:00:48.237Z,15.92
2023-05-20T08:05:51.454Z,16.07
2023-05-20T08:10:54.772Z,16.15
2023-05-20T08:15:59.494Z,16.31
2023-05-20T08:21:02.732Z,16.50
2023-05-20T08:26:05.999Z,16.54
2023-05-20T08:31:10.884Z,16.78
2023-05-20T08:36:14.117Z,16.76
2023-05-20T08:41:17.332Z,16.98
2023-05-20T08:46:24.358Z,17.29
2023-05-20T08:51:32.366Z,17.83
2023-05-20T08:56:35.710Z,18.17
2023-05-20T09:01:44.318Z,18.15
2023-05-20T09:06:48.531Z,18.05
2023-05-20T09:11:51.647Z,18.20
2023-05-20T09:16:57.124Z,18.17
2023-05-20T09:22:00.463Z,18.24
2023-05-20T09:27:03.664Z,18.35
2023-05-20T09:32:09.187Z,18.54
2023-05-20T09:37:13.325Z,18.87
2023-05-20T09:42:22.292Z,18.68
2023-05-20T09:47:28.209Z,18.67
2023-05-20T09:52:32.374Z,18.54
2023-05-20T09:57:36.490Z,18.68
2023-05-20T10:02:44.231Z,18.89
2023-05-20T10:08:19.405Z,19.15
2023-05-20T10:13:45.125Z,19.36
2023-05-20T10:18:58.100Z,19.69
2023-05-20T10:24:08.329Z,19.92
2023-05-20T10:29:22.928Z,20.21
2023-05-20T10:34:27.988Z,20.44
2023-05-20T10:39:34.214Z,20.23
2023-05-20T10:44:44.695Z,20.33
2023-05-20T10:49:49.539Z,20.26
2023-05-20T10:54:57.778Z,20.39
2023-05-20T11:00:02.132Z,20.71
2023-05-20T11:05:15.455Z,20.98
2023-05-20T11:10:18.754Z,21.08
2023-05-20T11:15:26.636Z,21.19
2023-05-20T11:20:35.482Z,21.34
2023-05-20T11:25:45.695Z,21.14
2023-05-20T11:30:49.574Z,21.15
2023-05-20T11:35:58.266Z,21.37
2023-05-20T11:41:01.502Z,21.08
2023-05-20T11:46:06.554Z,21.12
2023-05-20T11:51:11.931Z,21.14
2023-05-20T11:56:16.040Z,21.07
2023-05-20T12:01:23.068Z,21.00
2023-05-20T12:06:28.180Z,21.29
2023-05-20T12:11:32.930Z,21.38
2023-05-20T12:16:37.489Z,21.51
2023-05-20T12:21:42.247Z,21.42
2023-05-20T12:26:47.205Z,21.53
2023-05-20T12:31:50.724Z,21.62
2023-05-20T12:36:58.450Z,21.63
2023-05-20T12:42:01.792Z,21.51
2023-05-20T12:47:09.988Z,21.47
2023-05-20T12:52:22.286Z,21.62
2023-05-20T12:57:26.725Z,21.57
2023-05-20T13:02:30.629Z,21.36
2023-05-20T13:07:35.508Z,21.51
2023-05-20T13:12:39.015Z,21.50
2023-05-20T13:17:42.777Z,21.53
2023-05-20T13:22:48.150Z,21.68
2023-05-20T13:27:51.790Z,21.76
2023-05-20T13:32:55.634Z,21.79
2023-05-20T13:38:02.573Z,21.82
2023-05-20T13:43:06.342Z,21.96
2023-05-20T13:48:09.688Z,22.09
2023-05-20T13:53:14.559Z,22.12
2023-05-20T13:58:17.760Z,22.08
2023-05-20T14:03:23.906Z,22.07
2023-05-20T14:08:28.726Z,22.08
2023-05-20T14:13:35.560Z,22.13
2023-05-20T14:18:38.769Z,22.16
2023-05-20T14:23:47.761Z,22.20
2023-05-20T14:28:52.289Z,22.39
2023-05-20T14:33:55.550Z,22.52
2023-05-20T14:39:00.783Z,22.51
2023-05-20T14:44:04.148Z,22.54
2023-05-20T14:49:07.300Z,22.49
2023-05-20T14:54:16.204Z,22.46
2023-05-20T14:59:19.474Z,22.47
2023-05-20T15:04:27.109Z,22.46
2023-05-20T15:09:32.213Z,22.52
2023-05-20T15:14:38.883Z,22.54
2023-05-20T15:19:42.464Z,22.58
2023-05-20T15:24:49.809Z,22.67
2023-05-20T15:29:52.973Z,22.74
2023-05-20T15:34:56.478Z,22.78
2023-05-20T15:40:01.500Z,22.83
2023-05-20T15:45:04.749Z,22.83
2023-05-20T15:50:12.162Z,22.83
2023-05-20T15:55:23.281Z,22.80
2023-05-20T16:00:27.440Z,22.83
2023-05-20T16:05:30.966Z,22.80
2023-05-20T16:10:38.300Z,22.80
2023-05-20T16:15:44.097Z,22.81
2023-05-20T16:20:47.417Z,22.78
2023-05-20T16:25:52.262Z,22.90
2023-05-20T16:30:55.732Z,22.96
2023-05-20T16:35:59.030Z,22.96
2023-05-20T16:41:08.110Z,22.97
2023-05-20T16:46:12.838Z,22.97
2023-05-20T16:51:19.671Z,22.83
2023-05-20T16:56:24.616Z,22.76
2023-05-20T17:01:30.975Z,22.67
2023-05-20T17:06:34.605Z,22.67
2023-05-20T17:11:39.209Z,22.63
2023-05-20T17:16:43.091Z,22.58
2023-05-20T17:21:47.004Z,22.48
2023-05-20T17:26:56.365Z,22.40
2023-05-20T17:31:59.742Z,22.29
2023-05-20T17:37:06.343Z,22.20
2023-05-20T17:42:13.658Z,22.17
2023-05-20T17:47:17.107Z,22.06
2023-05-20T17:52:24.842Z,22.05
2023-05-20T17:57:29.359Z,22.01
2023-05-20T18:02:35.077Z,21.97
2023-05-20T18:07:38.891Z,21.92
2023-05-20T18:12:45.515Z,21.91
2023-05-20T18:17:52.011Z,21.87
2023-05-20T18:23:01.477Z,21.76
2023-05-20T18:28:06.509Z,21.63
2023-05-20T18:33:12.491Z,21.46
2023-05-20T18:38:16.689Z,21.32
2023-05-20T18:43:27.470Z,21.19
2023-05-20T18:48:30.976Z,21.05
2023-05-20T18:53:40.809Z,20.92
2023-05-20T18:58:47.989Z,20.82
2023-05-20T19:03:52.741Z,20.72
2023-05-20T19:08:56.869Z,20.66
2023-05-20T19:14:02.054Z,20.57
2023-05-20T19:19:05.224Z,20.43
2023-05-20T19:24:19.648Z,20.32
2023-05-20T19:29:25.075Z,20.22
2023-05-20T19:34:29.831Z,20.12
2023-05-20T19:39:35.090Z,20.04
2023-05-20T19:44:40.770Z,19.95
2023-05-20T19:49:52.666Z,19.86
2023-05-20T19:54:56.988Z,19.75
2023-05-20T20:00:03.770Z,19.67
2023-05-20T20:05:09.091Z,19.60
2023-05-20T20:10:14.822Z,19.51
2023-05-20T20:15:20.569Z,19.40
2023-05-20T20:20:24.905Z,19.29
2023-05-20T20:25:28.317Z,19.19
2023-05-20T20:30:33.086Z,19.14
2023-05-20T20:35:37.044Z,19.06
2023-05-20T20:40:42.766Z,18.97
2023-05-20T20:45:47.761Z,18.92
2023-05-20T20:50:51.410Z,18.83
2023-05-20T20:55:57.055Z,18.73
2023-05-20T21:01:03.446Z,18.66
2023-05-20T21:06:07.364Z,18.61
2023-05-20T21:11:10.636Z,18.54
2023-05-20T21:16:15.392Z,18.48
2023-05-20T21:21:21.587Z,18.41
2023-05-20T21:26:25.568Z,18.38
2023-05-20T21:31:30.271Z,18.27
2023-05-20T21:36:33.669Z,18.24
2023-05-20T21:41:36.857Z,18.18
2023-05-20T21:46:42.443Z,18.10
2023-05-20T21:51:45.774Z,18.07
2023-05-20T21:56:48.959Z,17.95
2023-05-20T22:01:53.638Z,17.91
2023-05-20T22:06:57.356Z,17.87
2023-05-20T22:12:01.332Z,17.80
2023-05-20T22:17:06.196Z,17.74
2023-05-20T22:22:09.511Z,17.72
2023-05-20T22:27:12.826Z,17.68
2023-05-20T22:32:17.658Z,17.66
2023-05-20T22:37:21.191Z,17.61
2023-05-20T22:42:24.585Z,17.58
2023-05-20T22:47:29.198Z,17.56
2023-05-20T22:52:32.718Z,17.50
2023-05-20T22:57:37.008Z,17.48
2023-05-20T23:02:42.320Z,17.47
2023-05-20T23:07:46.171Z,17.40
2023-05-20T23:12:49.253Z,17.37
2023-05-20T23:17:53.766Z,17.35
2023-05-20T23:22:57.075Z,17.33
2023-05-20T23:28:00.232Z,17.26
2023-05-20T23:33:05.309Z,17.20
2023-05-20T23:38:08.832Z,17.14
2023-05-20T23:43:12.047Z,17.06
2023-05-20T23:48:18.006Z,16.96
2023-05-20T23:53:21.500Z,16.93
2023-05-20T23:58:24.782Z,16.84
